sensor_id;sensor_type;location;lat;lon;timestamp;P1;P2;P0
44045;PMS7003;29709;52.396;16.796;2022-11-12T00:00:39;7;6;4
44045;PMS7003;29709;52.396;16.796;2022-11-12T00:04:08;5;3;3
44045;PMS7003;29709;52.396;16.796;2022-11-12T00:07:11;5;5;4
44045;PMS7003;29709;52.396;16.796;2022-11-12T00:10:14;8;6;4
44045;PMS7003;29709;52.396;16.796;2022-11-12T00:13:18;7;5;5
44045;PMS7003;29709;52.396;16.796;2022-11-12T00:16:21;8;7;5
44045;PMS7003;29709;52.396;16.796;2022-11-12T00:19:24;5;5;4
44045;PMS7003;29709;52.396;16.796;2022-11-12T00:22:27;5;4;3
44045;PMS7003;29709;52.396;16.796;2022-11-12T00:25:30;7;5;4
44045;PMS7003;29709;52.396;16.796;2022-11-12T00:28:33;6;6;4
44045;PMS7003;29709;52.396;16.796;2022-11-12T00:31:36;8;7;5
44045;PMS7003;29709;52.396;16.796;2022-11-12T00:35:05;6;4;3
44045;PMS7003;29709;52.396;16.796;2022-11-12T00:38:10;6;6;5
44045;PMS7003;29709;52.396;16.796;2022-11-12T00:41:13;5;5;3
44045;PMS7003;29709;52.396;16.796;2022-11-12T00:44:16;7;6;4
44045;PMS7003;29709;52.396;16.796;2022-11-12T00:47:19;12;11;8
44045;PMS7003;29709;52.396;16.796;2022-11-12T00:50:23;17;14;11
44045;PMS7003;29709;52.396;16.796;2022-11-12T00:53:26;22;20;14
44045;PMS7003;29709;52.396;16.796;2022-11-12T00:59:39;12;11;8
44045;PMS7003;29709;52.396;16.796;2022-11-12T01:03:08;9;9;6
44045;PMS7003;29709;52.396;16.796;2022-11-12T01:06:12;7;7;5
44045;PMS7003;29709;52.396;16.796;2022-11-12T01:09:20;8;7;5
44045;PMS7003;29709;52.396;16.796;2022-11-12T01:12:24;9;8;6
44045;PMS7003;29709;52.396;16.796;2022-11-12T01:15:27;6;6;5
44045;PMS7003;29709;52.396;16.796;2022-11-12T01:18:30;6;6;4
44045;PMS7003;29709;52.396;16.796;2022-11-12T01:21:35;7;6;3
44045;PMS7003;29709;52.396;16.796;2022-11-12T01:24:41;6;6;4
44045;PMS7003;29709;52.396;16.796;2022-11-12T01:27:44;7;6;4
44045;PMS7003;29709;52.396;16.796;2022-11-12T01:31:14;5;4;3
44045;PMS7003;29709;52.396;16.796;2022-11-12T01:34:25;7;7;4
44045;PMS7003;29709;52.396;16.796;2022-11-12T01:37:28;3;3;2
44045;PMS7003;29709;52.396;16.796;2022-11-12T01:40:31;5;5;4
44045;PMS7003;29709;52.396;16.796;2022-11-12T01:43:35;5;5;3
44045;PMS7003;29709;52.396;16.796;2022-11-12T01:53:35;5;4;4
44045;PMS7003;29709;52.396;16.796;2022-11-12T01:56:43;7;4;3
44045;PMS7003;29709;52.396;16.796;2022-11-12T01:59:47;7;5;4
44045;PMS7003;29709;52.396;16.796;2022-11-12T02:02:56;4;4;3
44045;PMS7003;29709;52.396;16.796;2022-11-12T02:06:04;5;5;4
44045;PMS7003;29709;52.396;16.796;2022-11-12T02:09:12;5;4;3
44045;PMS7003;29709;52.396;16.796;2022-11-12T02:12:16;5;3;1
44045;PMS7003;29709;52.396;16.796;2022-11-12T02:15:56;5;5;3
44045;PMS7003;29709;52.396;16.796;2022-11-12T02:22:15;3;3;3
44045;PMS7003;29709;52.396;16.796;2022-11-12T02:25:18;3;3;2
44045;PMS7003;29709;52.396;16.796;2022-11-12T02:28:25;3;3;3
44045;PMS7003;29709;52.396;16.796;2022-11-12T02:31:30;6;4;3
44045;PMS7003;29709;52.396;16.796;2022-11-12T02:34:33;3;3;2
44045;PMS7003;29709;52.396;16.796;2022-11-12T02:38:03;4;3;3
44045;PMS7003;29709;52.396;16.796;2022-11-12T02:41:07;3;3;3
44045;PMS7003;29709;52.396;16.796;2022-11-12T02:44:10;5;3;2
44045;PMS7003;29709;52.396;16.796;2022-11-12T02:47:13;5;3;3
44045;PMS7003;29709;52.396;16.796;2022-11-12T02:50:16;3;3;2
44045;PMS7003;29709;52.396;16.796;2022-11-12T02:53:19;4;3;3
44045;PMS7003;29709;52.396;16.796;2022-11-12T02:56:22;3;3;3
44045;PMS7003;29709;52.396;16.796;2022-11-12T02:59:25;6;5;4
44045;PMS7003;29709;52.396;16.796;2022-11-12T03:02:29;4;4;3
44045;PMS7003;29709;52.396;16.796;2022-11-12T03:05:33;2;2;2
44045;PMS7003;29709;52.396;16.796;2022-11-12T03:09:02;4;4;3
44045;PMS7003;29709;52.396;16.796;2022-11-12T03:12:05;4;3;2
44045;PMS7003;29709;52.396;16.796;2022-11-12T03:18:24;3;3;3
44045;PMS7003;29709;52.396;16.796;2022-11-12T03:21:27;3;3;3
44045;PMS7003;29709;52.396;16.796;2022-11-12T03:24:30;3;3;3
44045;PMS7003;29709;52.396;16.796;2022-11-12T03:27:33;4;3;2
44045;PMS7003;29709;52.396;16.796;2022-11-12T03:30:36;5;3;3
44045;PMS7003;29709;52.396;16.796;2022-11-12T03:34:07;3;2;2
44045;PMS7003;29709;52.396;16.796;2022-11-12T03:37:10;4;3;3
44045;PMS7003;29709;52.396;16.796;2022-11-12T03:40:14;3;3;2
44045;PMS7003;29709;52.396;16.796;2022-11-12T03:43:19;5;4;3
44045;PMS7003;29709;52.396;16.796;2022-11-12T03:46:22;2;2;2
44045;PMS7003;29709;52.396;16.796;2022-11-12T03:49:27;5;3;3
44045;PMS7003;29709;52.396;16.796;2022-11-12T03:52:30;5;3;3
44045;PMS7003;29709;52.396;16.796;2022-11-12T03:55:36;3;3;2
44045;PMS7003;29709;52.396;16.796;2022-11-12T03:58:39;2;2;2
44045;PMS7003;29709;52.396;16.796;2022-11-12T04:01:42;1;0;0
44045;PMS7003;29709;52.396;16.796;2022-11-12T04:05:11;3;3;2
44045;PMS7003;29709;52.396;16.796;2022-11-12T04:08:26;4;3;2
44045;PMS7003;29709;52.396;16.796;2022-11-12T04:11:38;3;3;2
44045;PMS7003;29709;52.396;16.796;2022-11-12T04:14:41;4;3;3
44045;PMS7003;29709;52.396;16.796;2022-11-12T04:17:44;3;3;2
44045;PMS7003;29709;52.396;16.796;2022-11-12T04:21:46;3;3;2
44045;PMS7003;29709;52.396;16.796;2022-11-12T04:24:52;4;3;2
44045;PMS7003;29709;52.396;16.796;2022-11-12T04:28:07;5;3;3
44045;PMS7003;29709;52.396;16.796;2022-11-12T04:31:10;3;3;2
44045;PMS7003;29709;52.396;16.796;2022-11-12T04:34:13;3;3;2
44045;PMS7003;29709;52.396;16.796;2022-11-12T04:37:29;2;2;1
44045;PMS7003;29709;52.396;16.796;2022-11-12T04:40:44;3;3;2
44045;PMS7003;29709;52.396;16.796;2022-11-12T04:43:58;4;3;2
44045;PMS7003;29709;52.396;16.796;2022-11-12T04:47:13;3;3;2
44045;PMS7003;29709;52.396;16.796;2022-11-12T04:50:42;5;3;2
44045;PMS7003;29709;52.396;16.796;2022-11-12T04:53:48;6;5;3
44045;PMS7003;29709;52.396;16.796;2022-11-12T04:56:51;4;4;3
44045;PMS7003;29709;52.396;16.796;2022-11-12T04:59:54;2;2;2
44045;PMS7003;29709;52.396;16.796;2022-11-12T05:02:57;6;4;3
44045;PMS7003;29709;52.396;16.796;2022-11-12T05:06:01;4;3;3
44045;PMS7003;29709;52.396;16.796;2022-11-12T05:09:06;4;3;2
44045;PMS7003;29709;52.396;16.796;2022-11-12T05:12:09;3;3;2
44045;PMS7003;29709;52.396;16.796;2022-11-12T05:15:13;6;4;4
44045;PMS7003;29709;52.396;16.796;2022-11-12T05:18:44;4;3;3
44045;PMS7003;29709;52.396;16.796;2022-11-12T05:21:47;3;2;1
44045;PMS7003;29709;52.396;16.796;2022-11-12T05:25:02;5;5;4
44045;PMS7003;29709;52.396;16.796;2022-11-12T05:28:06;4;4;3
44045;PMS7003;29709;52.396;16.796;2022-11-12T05:31:09;6;5;3
44045;PMS7003;29709;52.396;16.796;2022-11-12T05:34:13;6;4;3
44045;PMS7003;29709;52.396;16.796;2022-11-12T05:37:16;6;6;4
44045;PMS7003;29709;52.396;16.796;2022-11-12T05:40:20;4;4;2
44045;PMS7003;29709;52.396;16.796;2022-11-12T05:43:50;7;5;4
44045;PMS7003;29709;52.396;16.796;2022-11-12T05:46:53;5;4;3
44045;PMS7003;29709;52.396;16.796;2022-11-12T05:49:56;5;4;3
44045;PMS7003;29709;52.396;16.796;2022-11-12T05:53:00;3;3;2
44045;PMS7003;29709;52.396;16.796;2022-11-12T05:56:04;3;3;2
44045;PMS7003;29709;52.396;16.796;2022-11-12T05:59:09;3;3;3
44045;PMS7003;29709;52.396;16.796;2022-11-12T06:02:14;4;3;3
44045;PMS7003;29709;52.396;16.796;2022-11-12T06:05:17;2;2;2
44045;PMS7003;29709;52.396;16.796;2022-11-12T06:08:20;2;2;2
44045;PMS7003;29709;52.396;16.796;2022-11-12T06:11:23;3;3;2
44045;PMS7003;29709;52.396;16.796;2022-11-12T06:14:51;5;3;2
44045;PMS7003;29709;52.396;16.796;2022-11-12T06:17:55;5;5;4
44045;PMS7003;29709;52.396;16.796;2022-11-12T06:21:01;3;2;2
44045;PMS7003;29709;52.396;16.796;2022-11-12T06:24:21;5;4;2
44045;PMS7003;29709;52.396;16.796;2022-11-12T06:27:24;4;3;3
44045;PMS7003;29709;52.396;16.796;2022-11-12T06:30:27;6;4;3
44045;PMS7003;29709;52.396;16.796;2022-11-12T06:33:30;4;3;2
44045;PMS7003;29709;52.396;16.796;2022-11-12T06:37:00;4;3;3
44045;PMS7003;29709;52.396;16.796;2022-11-12T06:40:03;3;3;2
44045;PMS7003;29709;52.396;16.796;2022-11-12T06:43:07;4;3;3
44045;PMS7003;29709;52.396;16.796;2022-11-12T06:46:14;5;5;4
44045;PMS7003;29709;52.396;16.796;2022-11-12T06:49:18;10;9;6
44045;PMS7003;29709;52.396;16.796;2022-11-12T06:52:21;22;18;14
44045;PMS7003;29709;52.396;16.796;2022-11-12T06:55:26;12;11;8
44045;PMS7003;29709;52.396;16.796;2022-11-12T06:58:29;23;19;13
44045;PMS7003;29709;52.396;16.796;2022-11-12T07:01:32;16;14;10
44045;PMS7003;29709;52.396;16.796;2022-11-12T07:05:03;11;9;7
44045;PMS7003;29709;52.396;16.796;2022-11-12T07:08:06;20;16;11
44045;PMS7003;29709;52.396;16.796;2022-11-12T07:11:09;13;10;7
44045;PMS7003;29709;52.396;16.796;2022-11-12T07:14:13;2;2;1
44045;PMS7003;29709;52.396;16.796;2022-11-12T07:17:16;7;5;4
44045;PMS7003;29709;52.396;16.796;2022-11-12T07:20:19;5;2;2
44045;PMS7003;29709;52.396;16.796;2022-11-12T07:23:22;4;3;2
44045;PMS7003;29709;52.396;16.796;2022-11-12T07:26:25;12;10;7
44045;PMS7003;29709;52.396;16.796;2022-11-12T07:29:29;7;6;5
44045;PMS7003;29709;52.396;16.796;2022-11-12T07:32:32;15;14;9
44045;PMS7003;29709;52.396;16.796;2022-11-12T07:36:03;10;9;6
44045;PMS7003;29709;52.396;16.796;2022-11-12T07:39:08;3;2;2
44045;PMS7003;29709;52.396;16.796;2022-11-12T07:42:11;7;7;6
44045;PMS7003;29709;52.396;16.796;2022-11-12T07:45:14;23;21;16
44045;PMS7003;29709;52.396;16.796;2022-11-12T07:48:17;13;11;9
44045;PMS7003;29709;52.396;16.796;2022-11-12T07:51:21;5;4;3
44045;PMS7003;29709;52.396;16.796;2022-11-12T07:54:29;20;18;14
44045;PMS7003;29709;52.396;16.796;2022-11-12T07:57:32;34;27;20
44045;PMS7003;29709;52.396;16.796;2022-11-12T08:00:35;29;23;17
44045;PMS7003;29709;52.396;16.796;2022-11-12T08:04:06;7;7;5
44045;PMS7003;29709;52.396;16.796;2022-11-12T08:07:11;8;7;5
44045;PMS7003;29709;52.396;16.796;2022-11-12T08:10:14;8;5;4
44045;PMS7003;29709;52.396;16.796;2022-11-12T08:13:18;9;7;6
44045;PMS7003;29709;52.396;16.796;2022-11-12T08:16:21;8;6;5
44045;PMS7003;29709;52.396;16.796;2022-11-12T08:19:24;10;8;6
44045;PMS7003;29709;52.396;16.796;2022-11-12T08:26:13;16;14;10
44045;PMS7003;29709;52.396;16.796;2022-11-12T08:29:17;11;8;6
44045;PMS7003;29709;52.396;16.796;2022-11-12T08:32:20;19;15;12
44045;PMS7003;29709;52.396;16.796;2022-11-12T08:38:39;11;9;7
44045;PMS7003;29709;52.396;16.796;2022-11-12T08:41:43;11;10;8
44045;PMS7003;29709;52.396;16.796;2022-11-12T08:44:46;13;12;9
44045;PMS7003;29709;52.396;16.796;2022-11-12T08:47:49;15;14;11
44045;PMS7003;29709;52.396;16.796;2022-11-12T08:51:18;15;13;11
44045;PMS7003;29709;52.396;16.796;2022-11-12T08:54:21;14;11;9
44045;PMS7003;29709;52.396;16.796;2022-11-12T08:57:24;12;11;9
44045;PMS7003;29709;52.396;16.796;2022-11-12T09:00:28;8;7;6
44045;PMS7003;29709;52.396;16.796;2022-11-12T09:03:31;8;7;6
44045;PMS7003;29709;52.396;16.796;2022-11-12T09:06:34;9;8;7
44045;PMS7003;29709;52.396;16.796;2022-11-12T09:09:42;8;7;5
44045;PMS7003;29709;52.396;16.796;2022-11-12T09:12:49;12;11;9
44045;PMS7003;29709;52.396;16.796;2022-11-12T09:16:24;11;9;7
44045;PMS7003;29709;52.396;16.796;2022-11-12T09:19:27;9;7;5
44045;PMS7003;29709;52.396;16.796;2022-11-12T09:22:33;7;6;5
44045;PMS7003;29709;52.396;16.796;2022-11-12T09:25:36;8;7;5
44045;PMS7003;29709;52.396;16.796;2022-11-12T09:28:44;7;6;4
44045;PMS7003;29709;52.396;16.796;2022-11-12T09:35:03;7;7;6
44045;PMS7003;29709;52.396;16.796;2022-11-12T09:38:35;9;8;5
44045;PMS7003;29709;52.396;16.796;2022-11-12T09:41:38;7;6;5
44045;PMS7003;29709;52.396;16.796;2022-11-12T09:48:01;11;9;7
44045;PMS7003;29709;52.396;16.796;2022-11-12T09:51:21;11;8;6
44045;PMS7003;29709;52.396;16.796;2022-11-12T09:54:49;11;10;6
44045;PMS7003;29709;52.396;16.796;2022-11-12T09:57:59;9;7;4
44045;PMS7003;29709;52.396;16.796;2022-11-12T10:01:28;10;8;6
44045;PMS7003;29709;52.396;16.796;2022-11-12T10:07:43;11;7;6
44045;PMS7003;29709;52.396;16.796;2022-11-12T10:10:52;10;7;5
44045;PMS7003;29709;52.396;16.796;2022-11-12T10:14:13;9;8;6
44045;PMS7003;29709;52.396;16.796;2022-11-12T10:17:36;11;10;7
44045;PMS7003;29709;52.396;16.796;2022-11-12T10:20:52;11;11;8
44045;PMS7003;29709;52.396;16.796;2022-11-12T10:23:58;9;8;6
44045;PMS7003;29709;52.396;16.796;2022-11-12T10:27:31;10;9;5
44045;PMS7003;29709;52.396;16.796;2022-11-12T10:30:41;9;8;6
44045;PMS7003;29709;52.396;16.796;2022-11-12T10:33:47;6;5;4
44045;PMS7003;29709;52.396;16.796;2022-11-12T10:43:27;17;13;9
44045;PMS7003;29709;52.396;16.796;2022-11-12T10:50:17;9;9;7
44045;PMS7003;29709;52.396;16.796;2022-11-12T10:56:44;12;10;8
44045;PMS7003;29709;52.396;16.796;2022-11-12T11:03:15;11;8;6
44045;PMS7003;29709;52.396;16.796;2022-11-12T11:06:25;8;7;5
44045;PMS7003;29709;52.396;16.796;2022-11-12T11:16:27;13;11;9
44045;PMS7003;29709;52.396;16.796;2022-11-12T11:19:37;11;9;7
44045;PMS7003;29709;52.396;16.796;2022-11-12T11:22:44;12;11;8
44045;PMS7003;29709;52.396;16.796;2022-11-12T11:25:52;13;11;8
44045;PMS7003;29709;52.396;16.796;2022-11-12T11:29:09;12;10;8
44045;PMS7003;29709;52.396;16.796;2022-11-12T11:32:20;10;9;7
44045;PMS7003;29709;52.396;16.796;2022-11-12T11:42:26;12;10;8
44045;PMS7003;29709;52.396;16.796;2022-11-12T12:05:23;11;10;8
44045;PMS7003;29709;52.396;16.796;2022-11-12T12:11:57;9;8;7
44045;PMS7003;29709;52.396;16.796;2022-11-12T12:21:47;12;11;8
44045;PMS7003;29709;52.396;16.796;2022-11-12T12:24:56;15;13;9
44045;PMS7003;29709;52.396;16.796;2022-11-12T12:28:06;16;14;9
44045;PMS7003;29709;52.396;16.796;2022-11-12T12:31:24;15;13;10
44045;PMS7003;29709;52.396;16.796;2022-11-12T12:34:34;14;12;9
44045;PMS7003;29709;52.396;16.796;2022-11-12T12:44:17;14;11;8
44045;PMS7003;29709;52.396;16.796;2022-11-12T12:47:46;13;12;9
44045;PMS7003;29709;52.396;16.796;2022-11-12T12:50:51;16;14;10
44045;PMS7003;29709;52.396;16.796;2022-11-12T12:53:55;13;11;9
44045;PMS7003;29709;52.396;16.796;2022-11-12T12:56:59;13;10;8
44045;PMS7003;29709;52.396;16.796;2022-11-12T13:06:39;13;12;9
44045;PMS7003;29709;52.396;16.796;2022-11-12T13:09:51;11;8;6
44045;PMS7003;29709;52.396;16.796;2022-11-12T13:29:51;12;11;8
44045;PMS7003;29709;52.396;16.796;2022-11-12T13:32:57;10;9;6
44045;PMS7003;29709;52.396;16.796;2022-11-12T13:39:26;13;12;9
44045;PMS7003;29709;52.396;16.796;2022-11-12T13:49:26;20;16;12
44045;PMS7003;29709;52.396;16.796;2022-11-12T13:52:56;24;19;15
44045;PMS7003;29709;52.396;16.796;2022-11-12T13:56:14;16;14;9
44045;PMS7003;29709;52.396;16.796;2022-11-12T13:59:36;18;15;11
44045;PMS7003;29709;52.396;16.796;2022-11-12T14:06:02;15;14;12
44045;PMS7003;29709;52.396;16.796;2022-11-12T14:16:13;16;13;9
44045;PMS7003;29709;52.396;16.796;2022-11-12T14:22:39;16;13;9
44045;PMS7003;29709;52.396;16.796;2022-11-12T14:25:47;12;11;8
44045;PMS7003;29709;52.396;16.796;2022-11-12T14:28:55;15;14;11
44045;PMS7003;29709;52.396;16.796;2022-11-12T14:32:02;20;16;12
44045;PMS7003;29709;52.396;16.796;2022-11-12T14:38:26;15;14;10
44045;PMS7003;29709;52.396;16.796;2022-11-12T14:41:34;21;15;11
44045;PMS7003;29709;52.396;16.796;2022-11-12T14:44:42;21;15;11
44045;PMS7003;29709;52.396;16.796;2022-11-12T14:48:12;25;22;14
44045;PMS7003;29709;52.396;16.796;2022-11-12T14:51:23;39;30;21
44045;PMS7003;29709;52.396;16.796;2022-11-12T15:01:25;38;32;23
44045;PMS7003;29709;52.396;16.796;2022-11-12T15:04:36;25;21;15
44045;PMS7003;29709;52.396;16.796;2022-11-12T15:14:22;20;16;12
44045;PMS7003;29709;52.396;16.796;2022-11-12T15:17:33;20;16;13
44045;PMS7003;29709;52.396;16.796;2022-11-12T15:20:41;20;19;14
44045;PMS7003;29709;52.396;16.796;2022-11-12T15:24:06;16;14;11
44045;PMS7003;29709;52.396;16.796;2022-11-12T15:33:28;23;18;14
44045;PMS7003;29709;52.396;16.796;2022-11-12T15:36:57;18;17;13
44045;PMS7003;29709;52.396;16.796;2022-11-12T15:40:06;20;17;13
44045;PMS7003;29709;52.396;16.796;2022-11-12T15:43:23;18;15;12
44045;PMS7003;29709;52.396;16.796;2022-11-12T15:46:32;23;19;15
44045;PMS7003;29709;52.396;16.796;2022-11-12T15:49:44;23;19;15
44045;PMS7003;29709;52.396;16.796;2022-11-12T15:52:50;24;21;15
44045;PMS7003;29709;52.396;16.796;2022-11-12T15:56:19;23;19;14
44045;PMS7003;29709;52.396;16.796;2022-11-12T15:59:25;21;20;14
44045;PMS7003;29709;52.396;16.796;2022-11-12T16:02:28;24;22;17
44045;PMS7003;29709;52.396;16.796;2022-11-12T16:05:32;23;20;15
44045;PMS7003;29709;52.396;16.796;2022-11-12T16:08:35;18;16;13
44045;PMS7003;29709;52.396;16.796;2022-11-12T16:11:38;20;18;14
44045;PMS7003;29709;52.396;16.796;2022-11-12T16:14:44;20;19;13
44045;PMS7003;29709;52.396;16.796;2022-11-12T16:17:50;23;19;15
44045;PMS7003;29709;52.396;16.796;2022-11-12T16:20:56;21;18;14
44045;PMS7003;29709;52.396;16.796;2022-11-12T16:24:25;20;19;14
44045;PMS7003;29709;52.396;16.796;2022-11-12T16:27:28;23;19;15
44045;PMS7003;29709;52.396;16.796;2022-11-12T16:30:32;14;13;10
44045;PMS7003;29709;52.396;16.796;2022-11-12T16:33:37;35;27;18
44045;PMS7003;29709;52.396;16.796;2022-11-12T16:36:40;30;26;19
44045;PMS7003;29709;52.396;16.796;2022-11-12T16:39:44;41;32;23
44045;PMS7003;29709;52.396;16.796;2022-11-12T16:45:56;51;41;26
44045;PMS7003;29709;52.396;16.796;2022-11-12T16:49:01;49;37;25
44045;PMS7003;29709;52.396;16.796;2022-11-12T16:52:30;39;31;21
44045;PMS7003;29709;52.396;16.796;2022-11-12T16:55:33;41;33;22
44045;PMS7003;29709;52.396;16.796;2022-11-12T16:58:36;46;36;24
44045;PMS7003;29709;52.396;16.796;2022-11-12T17:01:42;55;45;29
44045;PMS7003;29709;52.396;16.796;2022-11-12T17:04:45;53;41;27
44045;PMS7003;29709;52.396;16.796;2022-11-12T17:07:49;39;30;21
44045;PMS7003;29709;52.396;16.796;2022-11-12T17:10:57;39;29;20
44045;PMS7003;29709;52.396;16.796;2022-11-12T17:14:07;32;25;18
44045;PMS7003;29709;52.396;16.796;2022-11-12T17:17:37;38;32;22
44045;PMS7003;29709;52.396;16.796;2022-11-12T17:24:00;37;29;20
44045;PMS7003;29709;52.396;16.796;2022-11-12T17:27:03;42;34;23
44045;PMS7003;29709;52.396;16.796;2022-11-12T17:30:06;40;32;22
44045;PMS7003;29709;52.396;16.796;2022-11-12T17:36:22;45;35;24
44045;PMS7003;29709;52.396;16.796;2022-11-12T17:39:53;44;35;24
44045;PMS7003;29709;52.396;16.796;2022-11-12T17:43:13;38;30;21
44045;PMS7003;29709;52.396;16.796;2022-11-12T17:46:20;41;33;22
44045;PMS7003;29709;52.396;16.796;2022-11-12T17:49:23;40;32;21
44045;PMS7003;29709;52.396;16.796;2022-11-12T17:52:26;48;37;25
44045;PMS7003;29709;52.396;16.796;2022-11-12T17:55:29;52;41;29
44045;PMS7003;29709;52.396;16.796;2022-11-12T17:58:33;50;39;26
44045;PMS7003;29709;52.396;16.796;2022-11-12T18:02:01;52;38;25
44045;PMS7003;29709;52.396;16.796;2022-11-12T18:05:08;52;39;28
44045;PMS7003;29709;52.396;16.796;2022-11-12T18:08:11;52;44;29
44045;PMS7003;29709;52.396;16.796;2022-11-12T18:11:14;51;39;26
44045;PMS7003;29709;52.396;16.796;2022-11-12T18:14:18;54;43;29
44045;PMS7003;29709;52.396;16.796;2022-11-12T18:17:21;50;38;28
44045;PMS7003;29709;52.396;16.796;2022-11-12T18:20:27;49;37;25
44045;PMS7003;29709;52.396;16.796;2022-11-12T18:23:30;49;39;27
44045;PMS7003;29709;52.396;16.796;2022-11-12T18:26:34;47;37;26
44045;PMS7003;29709;52.396;16.796;2022-11-12T18:29:37;50;40;25
44045;PMS7003;29709;52.396;16.796;2022-11-12T18:33:08;49;38;26
44045;PMS7003;29709;52.396;16.796;2022-11-12T18:36:12;50;41;28
44045;PMS7003;29709;52.396;16.796;2022-11-12T18:39:20;47;38;27
44045;PMS7003;29709;52.396;16.796;2022-11-12T18:42:27;47;37;25
44045;PMS7003;29709;52.396;16.796;2022-11-12T18:45:31;50;37;25
44045;PMS7003;29709;52.396;16.796;2022-11-12T18:48:34;43;34;23
44045;PMS7003;29709;52.396;16.796;2022-11-12T18:51:42;45;33;24
44045;PMS7003;29709;52.396;16.796;2022-11-12T18:54:48;49;38;24
44045;PMS7003;29709;52.396;16.796;2022-11-12T18:58:18;41;33;23
44045;PMS7003;29709;52.396;16.796;2022-11-12T19:01:22;44;34;24
44045;PMS7003;29709;52.396;16.796;2022-11-12T19:04:25;41;32;22
44045;PMS7003;29709;52.396;16.796;2022-11-12T19:07:29;41;33;22
44045;PMS7003;29709;52.396;16.796;2022-11-12T19:10:32;45;34;24
44045;PMS7003;29709;52.396;16.796;2022-11-12T19:13:36;37;30;21
44045;PMS7003;29709;52.396;16.796;2022-11-12T19:16:40;42;32;23
44045;PMS7003;29709;52.396;16.796;2022-11-12T19:19:46;42;33;23
44045;PMS7003;29709;52.396;16.796;2022-11-12T19:22:52;28;20;10
44045;PMS7003;29709;52.396;16.796;2022-11-12T19:26:22;43;32;23
44045;PMS7003;29709;52.396;16.796;2022-11-12T19:29:25;43;30;18
44045;PMS7003;29709;52.396;16.796;2022-11-12T19:32:29;43;34;23
44045;PMS7003;29709;52.396;16.796;2022-11-12T19:35:32;41;32;22
44045;PMS7003;29709;52.396;16.796;2022-11-12T19:38:35;44;35;24
44045;PMS7003;29709;52.396;16.796;2022-11-12T19:41:38;44;34;23
44045;PMS7003;29709;52.396;16.796;2022-11-12T19:44:41;48;38;26
44045;PMS7003;29709;52.396;16.796;2022-11-12T19:47:45;45;36;26
44045;PMS7003;29709;52.396;16.796;2022-11-12T19:50:49;39;28;19
44045;PMS7003;29709;52.396;16.796;2022-11-12T19:53:52;44;34;23
44045;PMS7003;29709;52.396;16.796;2022-11-12T19:56:58;40;31;22
44045;PMS7003;29709;52.396;16.796;2022-11-12T20:00:27;43;35;23
44045;PMS7003;29709;52.396;16.796;2022-11-12T20:03:33;41;32;21
44045;PMS7003;29709;52.396;16.796;2022-11-12T20:06:38;41;31;21
44045;PMS7003;29709;52.396;16.796;2022-11-12T20:09:41;39;30;21
44045;PMS7003;29709;52.396;16.796;2022-11-12T20:12:45;42;33;22
44045;PMS7003;29709;52.396;16.796;2022-11-12T20:15:50;38;30;21
44045;PMS7003;29709;52.396;16.796;2022-11-12T20:18:54;44;32;22
44045;PMS7003;29709;52.396;16.796;2022-11-12T20:21:58;39;32;21
44045;PMS7003;29709;52.396;16.796;2022-11-12T20:25:10;39;32;22
44045;PMS7003;29709;52.396;16.796;2022-11-12T20:28:37;41;32;22
44045;PMS7003;29709;52.396;16.796;2022-11-12T20:31:43;38;31;22
44045;PMS7003;29709;52.396;16.796;2022-11-12T20:34:46;42;33;23
44045;PMS7003;29709;52.396;16.796;2022-11-12T20:37:49;41;32;23
44045;PMS7003;29709;52.396;16.796;2022-11-12T20:40:58;39;31;21
44045;PMS7003;29709;52.396;16.796;2022-11-12T20:44:05;44;34;23
44045;PMS7003;29709;52.396;16.796;2022-11-12T20:47:12;46;35;24
44045;PMS7003;29709;52.396;16.796;2022-11-12T20:50:16;28;23;12
44045;PMS7003;29709;52.396;16.796;2022-11-12T20:53:48;42;34;23
44045;PMS7003;29709;52.396;16.796;2022-11-12T20:57:01;46;36;24
44045;PMS7003;29709;52.396;16.796;2022-11-12T21:00:15;46;34;24
44045;PMS7003;29709;52.396;16.796;2022-11-12T21:07:02;46;36;24
44045;PMS7003;29709;52.396;16.796;2022-11-12T21:10:11;45;35;23
44045;PMS7003;29709;52.396;16.796;2022-11-12T21:13:15;44;34;23
44045;PMS7003;29709;52.396;16.796;2022-11-12T21:16:19;44;35;24
44045;PMS7003;29709;52.396;16.796;2022-11-12T21:19:22;35;29;19
44045;PMS7003;29709;52.396;16.796;2022-11-12T21:22:26;42;34;23
44045;PMS7003;29709;52.396;16.796;2022-11-12T21:29:13;37;30;22
44045;PMS7003;29709;52.396;16.796;2022-11-12T21:32:16;42;32;22
44045;PMS7003;29709;52.396;16.796;2022-11-12T21:35:23;44;33;23
44045;PMS7003;29709;52.396;16.796;2022-11-12T21:38:36;47;38;25
44045;PMS7003;29709;52.396;16.796;2022-11-12T21:41:39;46;35;24
44045;PMS7003;29709;52.396;16.796;2022-11-12T21:44:42;45;35;24
44045;PMS7003;29709;52.396;16.796;2022-11-12T21:47:45;43;34;22
44045;PMS7003;29709;52.396;16.796;2022-11-12T21:50:51;39;30;21
44045;PMS7003;29709;52.396;16.796;2022-11-12T21:55:52;40;33;22
44045;PMS7003;29709;52.396;16.796;2022-11-12T21:59:01;42;34;23
44045;PMS7003;29709;52.396;16.796;2022-11-12T22:02:07;42;33;22
44045;PMS7003;29709;52.396;16.796;2022-11-12T22:05:12;39;30;21
44045;PMS7003;29709;52.396;16.796;2022-11-12T22:08:16;36;29;20
44045;PMS7003;29709;52.396;16.796;2022-11-12T22:11:20;37;28;19
44045;PMS7003;29709;52.396;16.796;2022-11-12T22:14:24;36;27;18
44045;PMS7003;29709;52.396;16.796;2022-11-12T22:17:27;38;30;21
44045;PMS7003;29709;52.396;16.796;2022-11-12T22:21:06;17;13;4
44045;PMS7003;29709;52.396;16.796;2022-11-12T22:24:07;38;31;22
44045;PMS7003;29709;52.396;16.796;2022-11-12T22:27:13;39;32;21
44045;PMS7003;29709;52.396;16.796;2022-11-12T22:30:16;44;34;23
44045;PMS7003;29709;52.396;16.796;2022-11-12T22:33:19;41;32;22
44045;PMS7003;29709;52.396;16.796;2022-11-12T22:36:23;41;32;22
44045;PMS7003;29709;52.396;16.796;2022-11-12T22:39:28;37;30;20
44045;PMS7003;29709;52.396;16.796;2022-11-12T22:42:31;40;31;22
44045;PMS7003;29709;52.396;16.796;2022-11-12T22:46:19;37;30;20
44045;PMS7003;29709;52.396;16.796;2022-11-12T22:49:13;38;31;20
44045;PMS7003;29709;52.396;16.796;2022-11-12T22:52:16;45;36;25
44045;PMS7003;29709;52.396;16.796;2022-11-12T22:55:20;41;33;22
44045;PMS7003;29709;52.396;16.796;2022-11-12T22:58:23;43;33;23
44045;PMS7003;29709;52.396;16.796;2022-11-12T23:01:29;41;33;23
44045;PMS7003;29709;52.396;16.796;2022-11-12T23:04:34;41;32;23
44045;PMS7003;29709;52.396;16.796;2022-11-12T23:07:37;40;33;23
44045;PMS7003;29709;52.396;16.796;2022-11-12T23:11:08;46;35;24
44045;PMS7003;29709;52.396;16.796;2022-11-12T23:14:13;43;34;23
44045;PMS7003;29709;52.396;16.796;2022-11-12T23:17:16;42;33;21
44045;PMS7003;29709;52.396;16.796;2022-11-12T23:20:19;44;35;24
44045;PMS7003;29709;52.396;16.796;2022-11-12T23:23:22;46;35;25
44045;PMS7003;29709;52.396;16.796;2022-11-12T23:26:27;46;36;25